createdAt,value
2024-03-28T00:02:11.190Z,98165.58
2024-03-28T00:04:39.243Z,98168.39
2024-03-28T00:07:10.623Z,98163.54
2024-03-28T00:09:39.726Z,98159.73
2024-03-28T00:12:11.094Z,98161.77
2024-03-28T00:14:39.004Z,98166.52
2024-03-28T00:17:07.118Z,98161.36
2024-03-28T00:19:36.358Z,98153.42
2024-03-28T00:22:04.938Z,98150.36
2024-03-28T00:24:33.163Z,98148.88
2024-03-28T00:27:08.627Z,98147.21
2024-03-28T00:29:45.649Z,98141.98
2024-03-28T00:32:13.997Z,98134.02
2024-03-28T00:34:41.976Z,98127.69
2024-03-28T00:37:10.063Z,98123.41
2024-03-28T00:39:39.319Z,98124.17
2024-03-28T00:42:08.863Z,98119.16
2024-03-28T00:44:37.041Z,98113.20
2024-03-28T00:47:05.366Z,98106.81
2024-03-28T00:49:33.544Z,98103.23
2024-03-28T00:52:02.053Z,98094.41
2024-03-28T00:54:30.215Z,98094.47
2024-03-28T00:56:58.288Z,98089.31
2024-03-28T00:59:27.634Z,98085.48
2024-03-28T01:01:55.892Z,98079.83
2024-03-28T01:04:23.920Z,98074.42
2024-03-28T01:06:54.377Z,98070.80
2024-03-28T01:09:34.179Z,98066.35
2024-03-28T01:12:02.482Z,98064.83
2024-03-28T01:14:31.919Z,98069.10
2024-03-28T01:17:00.164Z,98066.31
2024-03-28T01:19:28.568Z,98066.35
2024-03-28T01:21:59.695Z,98070.13
2024-03-28T01:24:27.865Z,98067.69
2024-03-28T01:26:56.332Z,98070.43
2024-03-28T01:29:24.311Z,98076.35
2024-03-28T01:31:52.345Z,98073.11
2024-03-28T01:34:20.378Z,98074.23
2024-03-28T01:36:48.390Z,98073.55
2024-03-28T01:39:16.651Z,98077.56
2024-03-28T01:41:49.027Z,98078.95
2024-03-28T01:44:17.951Z,98081.04
2024-03-28T01:46:53.554Z,98080.56
2024-03-28T01:49:32.591Z,98079.46
2024-03-28T01:52:02.531Z,98075.44
2024-03-28T01:54:34.402Z,98076.59
2024-03-28T01:57:03.695Z,98078.90
2024-03-28T01:59:33.006Z,98085.60
2024-03-28T02:02:03.338Z,98078.63
2024-03-28T02:04:31.489Z,98081.36
2024-03-28T02:06:59.601Z,98080.02
2024-03-28T02:09:28.500Z,98075.38
2024-03-28T02:11:59.746Z,98075.15
2024-03-28T02:14:27.896Z,98073.23
2024-03-28T02:17:06.219Z,98082.54
2024-03-28T02:19:35.497Z,98084.67
2024-03-28T02:22:03.896Z,98091.67
2024-03-28T02:24:33.065Z,98089.95
2024-03-28T02:27:01.170Z,98087.77
2024-03-28T02:29:29.489Z,98093.23
2024-03-28T02:31:59.538Z,98091.49
2024-03-28T02:34:27.617Z,98092.25
2024-03-28T02:36:56.523Z,98096.94
2024-03-28T02:39:26.271Z,98100.41
2024-03-28T02:41:59.942Z,98095.98
2024-03-28T02:44:28.964Z,98086.28
2024-03-28T02:46:57.051Z,98082.88
2024-03-28T02:49:24.904Z,98080.71
2024-03-28T02:51:52.985Z,98079.40
2024-03-28T02:54:20.936Z,98078.05
2024-03-28T02:56:52.633Z,98079.65
2024-03-28T02:59:20.526Z,98084.48
2024-03-28T03:01:48.565Z,98092.73
2024-03-28T03:04:16.606Z,98100.73
2024-03-28T03:06:45.528Z,98104.71
2024-03-28T03:09:13.679Z,98112.41
2024-03-28T03:11:41.656Z,98120.21
2024-03-28T03:14:09.698Z,98118.63
2024-03-28T03:16:37.821Z,98116.30
2024-03-28T03:19:05.962Z,98127.09
2024-03-28T03:21:34.043Z,98135.23
2024-03-28T03:24:03.758Z,98137.70
2024-03-28T03:26:32.262Z,98146.73
2024-03-28T03:29:22.232Z,98164.91
2024-03-28T03:32:22.401Z,98195.08
2024-03-28T03:34:53.009Z,98234.75
2024-03-28T03:37:27.042Z,98248.42
2024-03-28T03:40:02.805Z,98256.53
2024-03-28T03:42:45.076Z,98248.63
2024-03-28T03:45:12.931Z,98258.50
2024-03-28T03:47:40.823Z,98254.30
2024-03-28T03:50:09.171Z,98266.27
2024-03-28T03:52:37.025Z,98277.87
2024-03-28T03:55:06.548Z,98289.23
2024-03-28T03:57:34.485Z,98300.66
2024-03-28T04:00:02.579Z,98312.64
2024-03-28T04:02:32.881Z,98326.98
2024-03-28T04:05:00.850Z,98329.80
2024-03-28T04:07:29.151Z,98326.01
2024-03-28T04:10:26.038Z,98333.73
2024-03-28T04:12:54.815Z,98355.92
2024-03-28T04:15:25.398Z,98372.81
2024-03-28T04:17:58.520Z,98376.56
2024-03-28T04:23:24.929Z,98394.84
2024-03-28T04:25:59.733Z,98386.52
2024-03-28T04:28:30.983Z,98388.09
2024-03-28T04:31:05.317Z,98383.04
2024-03-28T04:36:27.784Z,98371.75
2024-03-28T04:38:57.146Z,98379.05
2024-03-28T04:41:25.048Z,98377.10
2024-03-28T04:43:53.155Z,98369.36
2024-03-28T04:46:22.054Z,98369.09
2024-03-28T04:49:01.822Z,98369.38
2024-03-28T04:51:29.810Z,98372.50
2024-03-28T04:53:57.739Z,98380.86
2024-03-28T04:56:25.694Z,98391.55
2024-03-28T04:58:53.975Z,98395.84
2024-03-28T05:01:25.994Z,98399.02
2024-03-28T05:04:16.696Z,98407.13
2024-03-28T05:07:52.047Z,98405.43
2024-03-28T05:10:46.695Z,98401.84
2024-03-28T05:14:08.792Z,98408.95
2024-03-28T05:16:49.766Z,98409.23
2024-03-28T05:19:17.979Z,98410.99
2024-03-28T05:22:03.345Z,98403.55
2024-03-28T05:25:26.465Z,98398.88
2024-03-28T05:28:38.819Z,98394.68
2024-03-28T05:31:30.124Z,98397.23
2024-03-28T05:37:36.426Z,98408.14
2024-03-28T05:40:32.756Z,98406.09
2024-03-28T05:43:19.830Z,98405.09
2024-03-28T05:45:54.814Z,98403.88
2024-03-28T05:48:36.562Z,98411.33
2024-03-28T05:51:16.324Z,98414.48
2024-03-28T05:54:25.715Z,98417.91
2024-03-28T05:57:32.933Z,98420.41
2024-03-28T06:00:31.425Z,98437.75
2024-03-28T06:09:45.275Z,98457.05
2024-03-28T06:15:36.496Z,98476.45
2024-03-28T06:18:14.529Z,98486.30
2024-03-28T06:21:52.253Z,98499.98
2024-03-28T06:25:00.187Z,98516.48
2024-03-28T06:28:38.749Z,98536.83
2024-03-28T06:31:43.887Z,98541.19
2024-03-28T06:35:05.501Z,98541.19
2024-03-28T06:38:06.970Z,98546.95
2024-03-28T06:44:54.606Z,98559.53
2024-03-28T06:49:03.729Z,98566.30
2024-03-28T06:51:14.034Z,98578.02
2024-03-28T06:54:50.577Z,98583.15
2024-03-28T06:57:19.499Z,98587.69
2024-03-28T06:59:56.489Z,98589.02
2024-03-28T07:02:29.692Z,98596.40
2024-03-28T07:05:02.665Z,98602.84
2024-03-28T07:13:58.833Z,98614.45
2024-03-28T07:16:47.598Z,98619.82
2024-03-28T07:20:03.690Z,98626.46
2024-03-28T07:23:12.679Z,98627.16
2024-03-28T07:26:09.336Z,98630.89
2024-03-28T07:29:37.425Z,98634.38
2024-03-28T07:32:27.506Z,98647.31
2024-03-28T07:35:36.774Z,98650.24
2024-03-28T07:41:57.206Z,98663.98
2024-03-28T07:45:12.226Z,98668.95
2024-03-28T07:49:28.791Z,98673.61
2024-03-28T07:52:04.450Z,98680.21
2024-03-28T07:55:17.722Z,98689.58
2024-03-28T07:58:43.524Z,98697.98
2024-03-28T08:01:56.841Z,98702.65
2024-03-28T08:05:45.098Z,98708.90
2024-03-28T08:08:43.741Z,98722.33
2024-03-28T08:11:49.854Z,98734.35
2024-03-28T08:14:20.555Z,98741.20
2024-03-28T08:17:07.076Z,98748.10
2024-03-28T08:19:52.565Z,98748.37
2024-03-28T08:28:36.823Z,98749.36
2024-03-28T08:31:07.562Z,98757.34
2024-03-28T08:33:59.115Z,98761.71
2024-03-28T08:36:51.778Z,98767.95
2024-03-28T08:39:38.041Z,98773.20
2024-03-28T08:42:19.064Z,98766.69
2024-03-28T08:44:50.154Z,98767.98
2024-03-28T08:47:53.487Z,98770.90
2024-03-28T08:50:20.220Z,98768.08
2024-03-28T08:52:57.326Z,98757.27
2024-03-28T08:55:35.133Z,98758.39
2024-03-28T08:58:15.187Z,98765.59
2024-03-28T09:08:00.618Z,98774.17
2024-03-28T09:19:02.749Z,98779.08
2024-03-28T09:22:03.976Z,98773.21
2024-03-28T09:25:10.778Z,98780.61
2024-03-28T09:29:21.692Z,98786.71
2024-03-28T09:34:59.538Z,98785.70
2024-03-28T09:38:44.100Z,98789.44
2024-03-28T09:46:02.765Z,98784.34
2024-03-28T09:49:15.434Z,98773.52
2024-03-28T09:52:22.702Z,98772.95
2024-03-28T09:55:44.803Z,98777.19
2024-03-28T10:03:09.616Z,98767.11
2024-03-28T10:07:29.783Z,98761.59
2024-03-28T10:11:12.777Z,98759.95
2024-03-28T10:15:09.575Z,98761.80
2024-03-28T10:21:24.198Z,98763.88
2024-03-28T10:28:15.629Z,98758.98
2024-03-28T10:31:12.254Z,98757.68
2024-03-28T10:33:53.747Z,98761.86
2024-03-28T10:37:36.673Z,98761.96
2024-03-28T10:40:14.142Z,98769.73
2024-03-28T10:43:05.574Z,98778.90
2024-03-28T10:46:00.323Z,98779.81
2024-03-28T10:48:47.764Z,98770.98
2024-03-28T10:51:58.200Z,98784.41
2024-03-28T10:55:09.297Z,98786.02
2024-03-28T10:57:53.105Z,98779.63
2024-03-28T11:00:29.607Z,98776.04
2024-03-28T11:03:34.520Z,98776.34
2024-03-28T11:06:30.968Z,98781.21
2024-03-28T11:10:11.242Z,98777.52
2024-03-28T11:16:20.689Z,98778.42
2024-03-28T11:19:22.286Z,98784.73
2024-03-28T11:22:21.145Z,98789.61
2024-03-28T11:26:04.087Z,98788.51
2024-03-28T11:28:42.673Z,98787.86
2024-03-28T11:31:56.863Z,98793.20
2024-03-28T11:39:19.924Z,98792.27
2024-03-28T11:42:09.824Z,98790.90
2024-03-28T12:23:22.118Z,98835.54
2024-03-28T12:35:02.788Z,98848.81
2024-03-28T12:38:07.793Z,98841.64
2024-03-28T12:45:07.956Z,98840.42
2024-03-28T12:46:40.523Z,98842.11
2024-03-28T12:58:06.164Z,98851.34
2024-03-28T13:05:06.346Z,98857.02
2024-03-28T13:22:28.526Z,98867.43
2024-03-28T13:25:30.452Z,98867.30
2024-03-28T13:29:33.417Z,98873.45
2024-03-28T13:33:06.097Z,98876.21
2024-03-28T13:43:21.913Z,98898.56
2024-03-28T13:50:23.969Z,98894.85
2024-03-28T13:53:59.341Z,98895.05
2024-03-28T14:23:17.458Z,98883.50
2024-03-28T14:25:34.138Z,98884.67
2024-03-28T14:28:06.732Z,98883.86
2024-03-28T14:30:40.805Z,98878.45
2024-03-28T14:33:24.173Z,98877.48
2024-03-28T14:37:10.634Z,98878.95
2024-03-28T14:40:39.632Z,98881.29
2024-03-28T14:42:45.650Z,98878.40
2024-03-28T14:45:39.551Z,98880.94
2024-03-28T14:48:17.158Z,98876.71
2024-03-28T14:50:45.435Z,98872.11
2024-03-28T14:56:07.132Z,98863.46
2024-03-28T14:56:27.304Z,98866.91
2024-03-28T15:03:27.329Z,98865.94
2024-03-28T15:06:07.277Z,98868.34
2024-03-28T15:08:37.124Z,98865.05
2024-03-28T15:11:19.265Z,98851.67
2024-03-28T15:13:47.609Z,98851.88
2024-03-28T15:16:16.349Z,98858.00
2024-03-28T15:18:59.044Z,98860.58
2024-03-28T15:21:54.216Z,98865.32
2024-03-28T15:31:56.242Z,98860.21
2024-03-28T15:34:58.744Z,98860.12
2024-03-28T15:37:33.823Z,98855.64
2024-03-28T15:40:31.145Z,98859.42
2024-03-28T15:48:22.163Z,98862.27
2024-03-28T15:54:16.377Z,98855.23
2024-03-28T15:57:08.570Z,98853.46
2024-03-28T16:00:07.894Z,98852.20
2024-03-28T16:03:19.799Z,98852.25
2024-03-28T16:06:33.564Z,98856.16
2024-03-28T16:09:23.986Z,98859.63
2024-03-28T16:13:05.329Z,98859.92
2024-03-28T16:15:51.591Z,98854.31
2024-03-28T16:18:45.445Z,98853.63
2024-03-28T16:21:17.775Z,98853.31
2024-03-28T16:27:06.612Z,98856.49
2024-03-28T16:29:51.616Z,98858.33
2024-03-28T16:32:27.655Z,98863.02
2024-03-28T16:35:12.187Z,98868.47
2024-03-28T16:41:02.790Z,98873.14
2024-03-28T16:45:13.251Z,98873.76
2024-03-28T16:47:41.498Z,98872.30
2024-03-28T16:50:46.460Z,98872.95
2024-03-28T16:53:32.698Z,98873.64
2024-03-28T16:56:04.086Z,98874.64
2024-03-28T17:01:51.742Z,98880.52
2024-03-28T17:04:27.348Z,98879.83
2024-03-28T17:07:52.181Z,98885.84
2024-03-28T17:10:27.404Z,98894.30
2024-03-28T17:13:15.450Z,98893.05
2024-03-28T17:15:59.416Z,98893.88
2024-03-28T17:18:32.675Z,98899.30
2024-03-28T17:21:07.514Z,98905.63
2024-03-28T17:28:41.569Z,98908.96
2024-03-28T17:32:22.868Z,98919.71
2024-03-28T17:35:30.447Z,98935.77
2024-03-28T17:42:23.902Z,98937.63
2024-03-28T17:53:36.876Z,98954.36
2024-03-28T18:00:47.466Z,98966.66
2024-03-28T18:05:11.451Z,98972.02
2024-03-28T18:08:18.855Z,98982.58
2024-03-28T18:12:13.508Z,98999.39
2024-03-28T18:19:20.919Z,99005.39
2024-03-28T18:23:35.561Z,99008.21
2024-03-28T18:25:40.543Z,99008.23
2024-03-28T18:28:39.919Z,99003.05
2024-03-28T18:31:30.840Z,99010.99
2024-03-28T18:34:07.623Z,99012.00
2024-03-28T18:36:36.609Z,99012.29
2024-03-28T19:02:39.009Z,98984.04
2024-03-28T19:05:07.494Z,98984.34
2024-03-28T19:07:36.031Z,98977.95
2024-03-28T19:10:09.738Z,98972.48
2024-03-28T19:12:41.314Z,98966.20
2024-03-28T19:15:10.154Z,98956.58
2024-03-28T19:17:39.786Z,98951.95
2024-03-28T19:20:08.370Z,98951.98
2024-03-28T19:22:41.248Z,98952.80
2024-03-28T19:25:38.521Z,98942.95
2024-03-28T19:28:12.415Z,98938.95
2024-03-28T19:30:48.540Z,98934.56
2024-03-28T19:33:27.504Z,98927.88
2024-03-28T19:36:35.998Z,98926.17
2024-03-28T19:43:08.007Z,98924.03
2024-03-28T19:46:32.054Z,98923.20
2024-03-28T19:49:11.715Z,98923.31
2024-03-28T19:51:56.089Z,98924.25
2024-03-28T19:54:29.859Z,98923.09
2024-03-28T19:57:05.093Z,98917.27
2024-03-28T19:59:36.731Z,98914.84
2024-03-28T20:02:22.827Z,98913.86
2024-03-28T20:05:13.988Z,98910.00
2024-03-28T20:07:49.917Z,98911.06
2024-03-28T20:10:32.766Z,98914.08
2024-03-28T20:13:12.789Z,98913.13
2024-03-28T20:15:48.044Z,98905.55
2024-03-28T20:18:16.171Z,98896.77
2024-03-28T20:20:45.591Z,98894.81
2024-03-28T20:23:17.284Z,98893.46
2024-03-28T20:25:45.426Z,98893.95
2024-03-28T20:28:13.678Z,98890.13
2024-03-28T20:30:41.772Z,98885.82
2024-03-28T20:33:12.506Z,98878.73
2024-03-28T20:35:46.152Z,98880.39
2024-03-28T20:38:16.739Z,98881.48
2024-03-28T20:40:54.303Z,98890.59
2024-03-28T20:43:22.410Z,98880.39
2024-03-28T20:46:04.063Z,98875.36
2024-03-28T20:48:38.514Z,98877.08
2024-03-28T20:51:20.793Z,98875.39
2024-03-28T20:53:52.240Z,98874.20
2024-03-28T20:56:23.754Z,98871.20
2024-03-28T20:58:52.546Z,98865.09
2024-03-28T21:01:21.021Z,98863.34
2024-03-28T21:03:49.241Z,98865.97
2024-03-28T21:06:35.702Z,98863.02
2024-03-28T21:09:22.060Z,98864.18
2024-03-28T21:11:50.087Z,98857.95
2024-03-28T21:14:18.345Z,98862.41
2024-03-28T21:16:46.652Z,98862.05
2024-03-28T21:19:27.489Z,98864.60
2024-03-28T21:21:55.676Z,98863.45
2024-03-28T21:24:23.664Z,98859.39
2024-03-28T21:26:56.289Z,98860.95
2024-03-28T21:29:28.004Z,98864.71
2024-03-28T21:31:58.268Z,98874.27
2024-03-28T21:34:26.601Z,98875.94
2024-03-28T21:37:18.871Z,98882.40
2024-03-28T21:39:50.915Z,98874.40
2024-03-28T21:42:19.468Z,98872.85
2024-03-28T21:44:59.206Z,98866.61
2024-03-28T21:47:38.830Z,98860.08
2024-03-28T21:50:09.215Z,98856.43
2024-03-28T21:52:40.699Z,98856.13
2024-03-28T21:55:14.152Z,98855.41
2024-03-28T21:57:47.292Z,98860.48
2024-03-28T22:00:15.740Z,98859.30
2024-03-28T22:02:49.293Z,98857.90
2024-03-28T22:05:20.164Z,98853.96
2024-03-28T22:07:51.391Z,98853.14
2024-03-28T22:10:23.771Z,98857.80
2024-03-28T22:12:51.777Z,98854.05
2024-03-28T22:15:23.718Z,98850.32
2024-03-28T22:17:55.185Z,98848.17
2024-03-28T22:20:25.727Z,98851.93
2024-03-28T22:22:56.982Z,98849.23
2024-03-28T22:25:28.602Z,98850.10
2024-03-28T22:27:56.931Z,98849.69
2024-03-28T22:30:25.085Z,98850.56
2024-03-28T22:33:02.460Z,98857.88
2024-03-28T22:35:32.996Z,98864.25
2024-03-28T22:38:10.250Z,98870.64
2024-03-28T22:40:56.741Z,98868.27
2024-03-28T22:43:31.168Z,98863.55
2024-03-28T22:46:00.679Z,98866.22
2024-03-28T22:48:38.070Z,98863.86
2024-03-28T22:51:13.243Z,98865.17
2024-03-28T22:53:47.167Z,98862.10
2024-03-28T22:56:24.284Z,98859.64
2024-03-28T22:58:57.856Z,98861.00
2024-03-28T23:01:28.913Z,98866.33
2024-03-28T23:03:57.043Z,98864.79
2024-03-28T23:06:32.986Z,98866.29
2024-03-28T23:09:03.886Z,98872.50
2024-03-28T23:11:42.229Z,98878.68
2024-03-28T23:14:14.661Z,98882.88
2024-03-28T23:16:45.429Z,98879.84
2024-03-28T23:19:14.879Z,98873.86
2024-03-28T23:21:46.050Z,98877.64
2024-03-28T23:27:24.747Z,98883.66
2024-03-28T23:30:18.632Z,98882.09
2024-03-28T23:33:05.440Z,98889.66
2024-03-28T23:35:35.519Z,98893.02
2024-03-28T23:38:10.591Z,98894.24
2024-03-28T23:43:48.897Z,98902.70
2024-03-28T23:46:26.580Z,98899.80
2024-03-28T23:49:14.226Z,98900.48
2024-03-28T23:51:50.290Z,98896.14
2024-03-28T23:54:26.155Z,98897.83
2024-03-28T23:57:02.250Z,98899.91
